sensor_id;sensor_type;location;lat;lon;timestamp;pressure;altitude;pressure_sealevel;temperature;humidity
22753;BME280;11543;43.144;24.684;2023-05-29T00:02:17;98639.13;;;18.51;86.62
22753;BME280;11543;43.144;24.684;2023-05-29T00:04:45;98636.22;;;18.45;86.60
22753;BME280;11543;43.144;24.684;2023-05-29T00:07:13;98621.78;;;18.38;86.96
22753;BME280;11543;43.144;24.684;2023-05-29T00:09:41;98634.53;;;18.44;87.16
22753;BME280;11543;43.144;24.684;2023-05-29T00:12:13;98629.31;;;18.36;87.12
22753;BME280;11543;43.144;24.684;2023-05-29T00:14:42;98635.78;;;18.35;87.52
22753;BME280;11543;43.144;24.684;2023-05-29T00:17:14;98641.22;;;18.29;87.58
22753;BME280;11543;43.144;24.684;2023-05-29T00:19:44;98634.13;;;18.21;87.98
22753;BME280;11543;43.144;24.684;2023-05-29T00:22:11;98632.00;;;18.17;88.15
22753;BME280;11543;43.144;24.684;2023-05-29T00:24:39;98633.06;;;18.15;88.48
22753;BME280;11543;43.144;24.684;2023-05-29T00:27:11;98630.56;;;18.14;88.58
22753;BME280;11543;43.144;24.684;2023-05-29T00:29:39;98643.09;;;18.15;88.66
22753;BME280;11543;43.144;24.684;2023-05-29T00:32:06;98632.22;;;18.15;88.63
22753;BME280;11543;43.144;24.684;2023-05-29T00:34:34;98653.13;;;18.21;88.68
22753;BME280;11543;43.144;24.684;2023-05-29T00:37:04;98645.78;;;18.15;88.58
22753;BME280;11543;43.144;24.684;2023-05-29T00:39:33;98651.69;;;18.25;88.85
22753;BME280;11543;43.144;24.684;2023-05-29T00:42:00;98642.91;;;18.23;88.47
22753;BME280;11543;43.144;24.684;2023-05-29T00:44:35;98640.81;;;18.25;88.57
22753;BME280;11543;43.144;24.684;2023-05-29T00:47:12;98640.41;;;18.28;88.44
22753;BME280;11543;43.144;24.684;2023-05-29T00:49:40;98648.75;;;18.33;88.30
22753;BME280;11543;43.144;24.684;2023-05-29T00:52:09;98657.53;;;18.42;88.26
22753;BME280;11543;43.144;24.684;2023-05-29T00:54:43;98650.41;;;18.41;88.08
22753;BME280;11543;43.144;24.684;2023-05-29T00:57:17;98648.13;;;18.44;87.86
22753;BME280;11543;43.144;24.684;2023-05-29T00:59:45;98630.56;;;18.40;87.84
22753;BME280;11543;43.144;24.684;2023-05-29T01:02:12;98639.53;;;18.48;87.83
22753;BME280;11543;43.144;24.684;2023-05-29T01:04:41;98637.03;;;18.39;87.90
22753;BME280;11543;43.144;24.684;2023-05-29T01:07:10;98644.78;;;18.42;87.66
22753;BME280;11543;43.144;24.684;2023-05-29T01:09:38;98642.06;;;18.42;87.77
22753;BME280;11543;43.144;24.684;2023-05-29T01:13:03;98647.06;;;18.45;87.80
22753;BME280;11543;43.144;24.684;2023-05-29T01:24:02;98633.72;;;18.37;87.19
22753;BME280;11543;43.144;24.684;2023-05-29T01:27:08;98655.41;;;18.51;87.32
22753;BME280;11543;43.144;24.684;2023-05-29T01:29:42;98634.97;;;18.35;87.30
22753;BME280;11543;43.144;24.684;2023-05-29T01:32:10;98637.03;;;18.39;87.20
22753;BME280;11543;43.144;24.684;2023-05-29T01:34:40;98627.03;;;18.33;86.98
22753;BME280;11543;43.144;24.684;2023-05-29T01:37:08;98645.81;;;18.41;86.98
22753;BME280;11543;43.144;24.684;2023-05-29T01:39:36;98619.50;;;18.22;87.36
22753;BME280;11543;43.144;24.684;2023-05-29T01:42:04;98620.31;;;18.16;87.81
22753;BME280;11543;43.144;24.684;2023-05-29T01:44:34;98628.69;;;18.21;88.15
22753;BME280;11543;43.144;24.684;2023-05-29T01:47:05;98632.03;;;18.23;88.16
22753;BME280;11543;43.144;24.684;2023-05-29T01:49:32;98623.28;;;18.21;88.16
22753;BME280;11543;43.144;24.684;2023-05-29T01:52:01;98621.81;;;18.25;88.22
22753;BME280;11543;43.144;24.684;2023-05-29T01:54:30;98618.66;;;18.28;88.25
22753;BME280;11543;43.144;24.684;2023-05-29T01:56:59;98629.72;;;18.40;88.04
22753;BME280;11543;43.144;24.684;2023-05-29T01:59:28;98633.91;;;18.42;88.07
22753;BME280;11543;43.144;24.684;2023-05-29T02:02:04;98629.72;;;18.40;88.08
22753;BME280;11543;43.144;24.684;2023-05-29T02:04:32;98635.16;;;18.46;87.98
22753;BME280;11543;43.144;24.684;2023-05-29T02:07:05;98635.78;;;18.49;87.79
22753;BME280;11543;43.144;24.684;2023-05-29T02:09:34;98628.69;;;18.48;87.83
22753;BME280;11543;43.144;24.684;2023-05-29T02:12:07;98623.66;;;18.44;87.67
22753;BME280;11543;43.144;24.684;2023-05-29T02:14:44;98616.16;;;18.46;87.70
22753;BME280;11543;43.144;24.684;2023-05-29T02:17:19;98626.59;;;18.50;87.66
22753;BME280;11543;43.144;24.684;2023-05-29T02:19:55;98626.38;;;18.44;87.53
22753;BME280;11543;43.144;24.684;2023-05-29T02:22:38;98625.75;;;18.42;87.66
22753;BME280;11543;43.144;24.684;2023-05-29T02:25:17;98630.38;;;18.35;87.59
22753;BME280;11543;43.144;24.684;2023-05-29T02:27:53;98620.97;;;18.31;87.78
22753;BME280;11543;43.144;24.684;2023-05-29T02:30:25;98648.94;;;18.45;88.12
22753;BME280;11543;43.144;24.684;2023-05-29T02:33:06;98634.53;;;18.38;88.11
22753;BME280;11543;43.144;24.684;2023-05-29T02:35:44;98635.38;;;18.38;88.19
22753;BME280;11543;43.144;24.684;2023-05-29T02:38:18;98631.41;;;18.34;88.62
22753;BME280;11543;43.144;24.684;2023-05-29T02:41:00;98638.31;;;18.30;88.77
22753;BME280;11543;43.144;24.684;2023-05-29T02:43:38;98626.59;;;18.23;88.89
22753;BME280;11543;43.144;24.684;2023-05-29T02:46:30;98616.59;;;18.24;89.06
22753;BME280;11543;43.144;24.684;2023-05-29T02:49:13;98632.66;;;18.32;89.08
22753;BME280;11543;43.144;24.684;2023-05-29T02:51:44;98624.09;;;18.28;89.08
22753;BME280;11543;43.144;24.684;2023-05-29T02:54:14;98632.03;;;18.36;89.14
22753;BME280;11543;43.144;24.684;2023-05-29T02:57:07;98645.41;;;18.51;89.10
22753;BME280;11543;43.144;24.684;2023-05-29T02:59:55;98623.25;;;18.34;88.99
22753;BME280;11543;43.144;24.684;2023-05-29T03:02:43;98630.38;;;18.35;88.93
22753;BME280;11543;43.144;24.684;2023-05-29T03:05:23;98627.44;;;18.37;89.19
22753;BME280;11543;43.144;24.684;2023-05-29T03:08:22;98642.91;;;18.43;88.96
22753;BME280;11543;43.144;24.684;2023-05-29T03:11:44;98640.38;;;18.48;88.69
22753;BME280;11543;43.144;24.684;2023-05-29T03:17:15;98640.38;;;18.55;88.45
22753;BME280;11543;43.144;24.684;2023-05-29T03:19:56;98638.06;;;18.52;88.16
22753;BME280;11543;43.144;24.684;2023-05-29T03:22:56;98650.00;;;18.51;88.42
22753;BME280;11543;43.144;24.684;2023-05-29T03:26:01;98644.16;;;18.40;88.34
22753;BME280;11543;43.144;24.684;2023-05-29T03:29:08;98647.91;;;18.39;88.72
22753;BME280;11543;43.144;24.684;2023-05-29T03:39:21;98649.16;;;18.30;89.53
22753;BME280;11543;43.144;24.684;2023-05-29T03:42:23;98666.72;;;18.41;90.02
22753;BME280;11543;43.144;24.684;2023-05-29T03:45:28;98645.81;;;18.28;90.18
22753;BME280;11543;43.144;24.684;2023-05-29T03:48:25;98663.78;;;18.42;90.28
22753;BME280;11543;43.144;24.684;2023-05-29T03:51:02;98672.97;;;18.48;90.17
22753;BME280;11543;43.144;24.684;2023-05-29T03:53:34;98655.44;;;18.44;90.38
22753;BME280;11543;43.144;24.684;2023-05-29T03:56:19;98674.84;;;18.61;90.04
22753;BME280;11543;43.144;24.684;2023-05-29T04:02:46;98652.50;;;18.59;90.04
22753;BME280;11543;43.144;24.684;2023-05-29T04:05:58;98659.63;;;18.66;90.07
22753;BME280;11543;43.144;24.684;2023-05-29T04:09:16;98693.03;;;18.80;90.37
22753;BME280;11543;43.144;24.684;2023-05-29T04:15:35;98695.53;;;18.88;90.10
22753;BME280;11543;43.144;24.684;2023-05-29T04:18:24;98699.72;;;18.91;90.26
22753;BME280;11543;43.144;24.684;2023-05-29T04:21:12;98701.78;;;18.95;89.97
22753;BME280;11543;43.144;24.684;2023-05-29T04:24:01;98687.16;;;18.96;89.90
22753;BME280;11543;43.144;24.684;2023-05-29T04:27:15;98679.63;;;18.98;89.87
22753;BME280;11543;43.144;24.684;2023-05-29T04:30:04;98682.09;;;19.06;89.51
22753;BME280;11543;43.144;24.684;2023-05-29T04:32:57;98675.03;;;18.92;90.08
22753;BME280;11543;43.144;24.684;2023-05-29T04:36:26;98692.16;;;18.99;90.47
22753;BME280;11543;43.144;24.684;2023-05-29T04:39:50;98670.44;;;18.93;90.36
22753;BME280;11543;43.144;24.684;2023-05-29T04:43:01;98682.53;;;19.17;89.87
22753;BME280;11543;43.144;24.684;2023-05-29T04:45:35;98680.03;;;19.15;89.30
22753;BME280;11543;43.144;24.684;2023-05-29T04:48:45;98686.28;;;19.22;89.25
22753;BME280;11543;43.144;24.684;2023-05-29T04:51:40;98705.91;;;19.31;89.17
22753;BME280;11543;43.144;24.684;2023-05-29T04:54:28;98703.81;;;19.33;88.86
22753;BME280;11543;43.144;24.684;2023-05-29T04:57:07;98698.41;;;19.26;88.40
22753;BME280;11543;43.144;24.684;2023-05-29T05:00:00;98703.38;;;19.36;88.80
22753;BME280;11543;43.144;24.684;2023-05-29T05:03:09;98700.03;;;19.34;89.01
22753;BME280;11543;43.144;24.684;2023-05-29T05:06:16;98710.06;;;19.40;89.47
22753;BME280;11543;43.144;24.684;2023-05-29T05:09:10;98702.94;;;19.39;89.56
22753;BME280;11543;43.144;24.684;2023-05-29T05:11:44;98701.47;;;19.43;89.86
22753;BME280;11543;43.144;24.684;2023-05-29T05:14:32;98703.31;;;19.49;90.13
22753;BME280;11543;43.144;24.684;2023-05-29T05:17:51;98727.16;;;19.67;90.20
22753;BME280;11543;43.144;24.684;2023-05-29T05:20:35;98691.78;;;19.60;90.72
22753;BME280;11543;43.144;24.684;2023-05-29T05:23:37;98700.94;;;19.72;91.30
22753;BME280;11543;43.144;24.684;2023-05-29T05:34:21;98739.13;;;20.04;92.50
22753;BME280;11543;43.144;24.684;2023-05-29T05:38:16;98726.56;;;20.03;92.36
22753;BME280;11543;43.144;24.684;2023-05-29T06:09:30;98730.34;;;20.33;92.27
22753;BME280;11543;43.144;24.684;2023-05-29T06:12:55;98731.38;;;20.39;92.34
22753;BME280;11543;43.144;24.684;2023-05-29T06:16:11;98751.47;;;20.45;92.28
22753;BME280;11543;43.144;24.684;2023-05-29T06:18:51;98732.44;;;20.31;92.18
22753;BME280;11543;43.144;24.684;2023-05-29T06:21:17;98745.72;;;20.21;92.29
22753;BME280;11543;43.144;24.684;2023-05-29T06:23:43;98748.28;;;20.16;92.81
22753;BME280;11543;43.144;24.684;2023-05-29T06:26:08;98741.91;;;20.29;91.94
22753;BME280;11543;43.144;24.684;2023-05-29T06:28:34;98735.19;;;20.31;91.40
22753;BME280;11543;43.144;24.684;2023-05-29T06:31:02;98745.63;;;20.41;91.56
22753;BME280;11543;43.144;24.684;2023-05-29T06:33:27;98746.00;;;20.45;90.88
22753;BME280;11543;43.144;24.684;2023-05-29T06:35:55;98727.56;;;20.47;90.65
22753;BME280;11543;43.144;24.684;2023-05-29T06:38:21;98735.91;;;20.52;90.84
22753;BME280;11543;43.144;24.684;2023-05-29T06:41:12;98735.28;;;20.50;91.86
22753;BME280;11543;43.144;24.684;2023-05-29T06:43:41;98730.00;;;20.55;91.73
22753;BME280;11543;43.144;24.684;2023-05-29T06:46:15;98736.56;;;20.72;91.09
22753;BME280;11543;43.144;24.684;2023-05-29T06:48:41;98740.25;;;20.84;90.64
22753;BME280;11543;43.144;24.684;2023-05-29T06:51:11;98753.16;;;20.95;90.24
22753;BME280;11543;43.144;24.684;2023-05-29T06:53:40;98723.00;;;20.90;90.07
22753;BME280;11543;43.144;24.684;2023-05-29T06:56:09;98743.34;;;21.13;89.42
22753;BME280;11543;43.144;24.684;2023-05-29T06:58:35;98738.22;;;21.23;88.26
22753;BME280;11543;43.144;24.684;2023-05-29T07:01:01;98731.88;;;21.29;88.00
22753;BME280;11543;43.144;24.684;2023-05-29T07:03:26;98737.47;;;21.52;87.04
22753;BME280;11543;43.144;24.684;2023-05-29T07:05:55;98715.03;;;21.50;86.82
22753;BME280;11543;43.144;24.684;2023-05-29T07:08:20;98737.63;;;21.76;85.91
22753;BME280;11543;43.144;24.684;2023-05-29T07:11:14;98717.00;;;21.80;84.94
22753;BME280;11543;43.144;24.684;2023-05-29T07:14:23;98725.09;;;22.05;82.48
22753;BME280;11543;43.144;24.684;2023-05-29T07:16:50;98729.53;;;22.17;82.08
22753;BME280;11543;43.144;24.684;2023-05-29T07:19:34;98706.47;;;22.13;81.90
22753;BME280;11543;43.144;24.684;2023-05-29T07:22:02;98713.75;;;22.31;83.86
22753;BME280;11543;43.144;24.684;2023-05-29T07:25:00;98701.06;;;22.37;84.08
22753;BME280;11543;43.144;24.684;2023-05-29T07:27:35;98709.59;;;22.29;83.94
22753;BME280;11543;43.144;24.684;2023-05-29T07:30:01;98721.47;;;22.22;83.12
22753;BME280;11543;43.144;24.684;2023-05-29T07:32:26;98730.47;;;22.11;82.51
22753;BME280;11543;43.144;24.684;2023-05-29T07:34:52;98738.34;;;22.01;79.83
22753;BME280;11543;43.144;24.684;2023-05-29T07:37:17;98719.59;;;21.75;78.56
22753;BME280;11543;43.144;24.684;2023-05-29T07:39:44;98745.06;;;21.69;78.74
22753;BME280;11543;43.144;24.684;2023-05-29T07:42:10;98717.63;;;21.45;79.59
22753;BME280;11543;43.144;24.684;2023-05-29T07:44:35;98712.53;;;21.30;80.19
22753;BME280;11543;43.144;24.684;2023-05-29T07:47:01;98722.63;;;21.30;81.86
22753;BME280;11543;43.144;24.684;2023-05-29T07:49:26;98720.56;;;21.25;83.07
22753;BME280;11543;43.144;24.684;2023-05-29T07:51:52;98722.84;;;21.28;83.59
22753;BME280;11543;43.144;24.684;2023-05-29T07:54:18;98735.50;;;21.41;83.95
22753;BME280;11543;43.144;24.684;2023-05-29T07:56:45;98737.94;;;21.49;83.98
22753;BME280;11543;43.144;24.684;2023-05-29T07:59:11;98724.06;;;21.51;84.25
22753;BME280;11543;43.144;24.684;2023-05-29T08:01:37;98724.88;;;21.51;84.16
22753;BME280;11543;43.144;24.684;2023-05-29T08:04:04;98736.09;;;21.61;84.01
22753;BME280;11543;43.144;24.684;2023-05-29T08:06:30;98740.44;;;21.69;83.73
22753;BME280;11543;43.144;24.684;2023-05-29T08:08:57;98742.25;;;21.75;83.65
22753;BME280;11543;43.144;24.684;2023-05-29T08:11:23;98731.63;;;21.85;83.57
22753;BME280;11543;43.144;24.684;2023-05-29T08:13:48;98725.63;;;21.95;83.07
22753;BME280;11543;43.144;24.684;2023-05-29T08:16:14;98728.78;;;22.10;83.22
22753;BME280;11543;43.144;24.684;2023-05-29T08:18:41;98731.47;;;22.29;82.70
22753;BME280;11543;43.144;24.684;2023-05-29T08:21:06;98715.69;;;22.42;79.17
22753;BME280;11543;43.144;24.684;2023-05-29T08:23:32;98737.50;;;22.61;78.23
22753;BME280;11543;43.144;24.684;2023-05-29T08:25:58;98728.00;;;22.63;77.24
22753;BME280;11543;43.144;24.684;2023-05-29T08:28:23;98744.28;;;22.70;77.33
22753;BME280;11543;43.144;24.684;2023-05-29T08:30:49;98741.31;;;22.71;77.52
22753;BME280;11543;43.144;24.684;2023-05-29T08:33:14;98726.47;;;22.67;78.21
22753;BME280;11543;43.144;24.684;2023-05-29T08:35:40;98729.19;;;22.67;78.85
22753;BME280;11543;43.144;24.684;2023-05-29T08:38:05;98724.66;;;22.61;79.00
22753;BME280;11543;43.144;24.684;2023-05-29T08:40:31;98721.53;;;22.46;78.24
22753;BME280;11543;43.144;24.684;2023-05-29T08:45:33;98734.81;;;22.42;78.03
22753;BME280;11543;43.144;24.684;2023-05-29T08:51:21;98734.31;;;22.34;77.23
22753;BME280;11543;43.144;24.684;2023-05-29T08:53:48;98728.41;;;22.37;77.53
22753;BME280;11543;43.144;24.684;2023-05-29T08:56:15;98718.66;;;22.41;77.88
22753;BME280;11543;43.144;24.684;2023-05-29T08:58:41;98734.41;;;22.57;78.29
22753;BME280;11543;43.144;24.684;2023-05-29T09:01:07;98726.22;;;22.69;77.87
22753;BME280;11543;43.144;24.684;2023-05-29T09:03:34;98720.16;;;22.78;77.95
22753;BME280;11543;43.144;24.684;2023-05-29T09:06:00;98714.00;;;22.95;78.10
22753;BME280;11543;43.144;24.684;2023-05-29T09:08:26;98721.03;;;23.14;77.63
22753;BME280;11543;43.144;24.684;2023-05-29T09:10:53;98718.03;;;23.27;75.48
22753;BME280;11543;43.144;24.684;2023-05-29T09:13:20;98720.91;;;23.44;75.39
22753;BME280;11543;43.144;24.684;2023-05-29T09:15:46;98708.88;;;23.45;73.91
22753;BME280;11543;43.144;24.684;2023-05-29T09:18:11;98706.13;;;23.57;73.19
22753;BME280;11543;43.144;24.684;2023-05-29T09:20:37;98705.38;;;23.73;72.49
22753;BME280;11543;43.144;24.684;2023-05-29T09:23:05;98720.34;;;23.82;73.09
22753;BME280;11543;43.144;24.684;2023-05-29T09:25:33;98705.22;;;23.79;72.72
22753;BME280;11543;43.144;24.684;2023-05-29T09:28:06;98703.41;;;23.85;72.53
22753;BME280;11543;43.144;24.684;2023-05-29T09:30:41;98696.28;;;23.84;74.74
22753;BME280;11543;43.144;24.684;2023-05-29T09:33:11;98699.34;;;23.88;76.17
22753;BME280;11543;43.144;24.684;2023-05-29T09:35:39;98709.69;;;23.97;75.70
22753;BME280;11543;43.144;24.684;2023-05-29T09:38:09;98698.66;;;23.80;75.72
22753;BME280;11543;43.144;24.684;2023-05-29T09:40:38;98706.19;;;23.73;75.98
22753;BME280;11543;43.144;24.684;2023-05-29T09:43:12;98706.13;;;23.57;76.84
22753;BME280;11543;43.144;24.684;2023-05-29T09:45:44;98716.25;;;23.44;77.58
22753;BME280;11543;43.144;24.684;2023-05-29T09:50:39;98697.84;;;23.05;79.18
22753;BME280;11543;43.144;24.684;2023-05-29T09:53:19;98695.47;;;22.97;80.36
22753;BME280;11543;43.144;24.684;2023-05-29T09:55:47;98715.69;;;22.96;81.09
22753;BME280;11543;43.144;24.684;2023-05-29T09:58:20;98704.38;;;22.80;80.73
22753;BME280;11543;43.144;24.684;2023-05-29T10:00:46;98720.78;;;22.80;80.94
22753;BME280;11543;43.144;24.684;2023-05-29T10:03:16;98714.94;;;22.65;80.62
22753;BME280;11543;43.144;24.684;2023-05-29T10:05:46;98708.72;;;22.58;80.67
22753;BME280;11543;43.144;24.684;2023-05-29T10:08:13;98729.31;;;22.61;80.70
22753;BME280;11543;43.144;24.684;2023-05-29T10:10:44;98719.16;;;22.49;80.81
22753;BME280;11543;43.144;24.684;2023-05-29T10:13:13;98718.19;;;22.44;81.49
22753;BME280;11543;43.144;24.684;2023-05-29T10:15:44;98717.09;;;22.33;82.02
22753;BME280;11543;43.144;24.684;2023-05-29T10:18:16;98720.53;;;22.29;83.00
22753;BME280;11543;43.144;24.684;2023-05-29T10:20:46;98714.66;;;22.13;84.29
22753;BME280;11543;43.144;24.684;2023-05-29T10:23:13;98725.25;;;22.21;84.75
22753;BME280;11543;43.144;24.684;2023-05-29T10:25:40;98714.19;;;22.16;85.08
22753;BME280;11543;43.144;24.684;2023-05-29T10:28:08;98710.88;;;22.14;85.29
22753;BME280;11543;43.144;24.684;2023-05-29T10:30:46;98711.59;;;22.21;86.07
22753;BME280;11543;43.144;24.684;2023-05-29T10:36:19;98702.81;;;22.19;87.01
22753;BME280;11543;43.144;24.684;2023-05-29T10:38:50;98702.19;;;22.17;87.27
22753;BME280;11543;43.144;24.684;2023-05-29T10:43:59;98695.81;;;22.23;87.03
22753;BME280;11543;43.144;24.684;2023-05-29T10:49:17;98703.91;;;22.42;87.15
22753;BME280;11543;43.144;24.684;2023-05-29T10:51:43;98697.97;;;22.45;87.11
22753;BME280;11543;43.144;24.684;2023-05-29T10:54:12;98693.25;;;22.52;86.61
22753;BME280;11543;43.144;24.684;2023-05-29T10:56:44;98697.78;;;22.58;85.77
22753;BME280;11543;43.144;24.684;2023-05-29T10:59:10;98675.09;;;22.58;85.47
22753;BME280;11543;43.144;24.684;2023-05-29T11:01:38;98676.50;;;22.60;85.39
22753;BME280;11543;43.144;24.684;2023-05-29T11:06:45;98661.91;;;22.78;84.92
22753;BME280;11543;43.144;24.684;2023-05-29T11:09:37;98670.25;;;22.95;85.30
22753;BME280;11543;43.144;24.684;2023-05-29T11:15:01;98658.13;;;22.91;82.27
22753;BME280;11543;43.144;24.684;2023-05-29T11:20:28;98656.19;;;23.03;81.84
22753;BME280;11543;43.144;24.684;2023-05-29T11:25:26;98642.13;;;23.11;80.00
22753;BME280;11543;43.144;24.684;2023-05-29T11:27:52;98648.19;;;23.25;78.75
22753;BME280;11543;43.144;24.684;2023-05-29T11:30:20;98627.22;;;23.30;77.87
22753;BME280;11543;43.144;24.684;2023-05-29T11:32:47;98634.94;;;23.45;77.59
22753;BME280;11543;43.144;24.684;2023-05-29T11:35:19;98647.50;;;23.69;77.40
22753;BME280;11543;43.144;24.684;2023-05-29T11:37:54;98655.88;;;24.08;76.61
22753;BME280;11543;43.144;24.684;2023-05-29T11:40:47;98650.66;;;24.35;75.50
22753;BME280;11543;43.144;24.684;2023-05-29T11:43:13;98640.25;;;24.70;73.32
22753;BME280;11543;43.144;24.684;2023-05-29T11:45:38;98643.53;;;25.06;72.67
22753;BME280;11543;43.144;24.684;2023-05-29T11:48:13;98628.31;;;25.15;71.48
22753;BME280;11543;43.144;24.684;2023-05-29T11:50:38;98631.25;;;25.30;68.65
22753;BME280;11543;43.144;24.684;2023-05-29T11:53:06;98630.81;;;25.38;67.71
22753;BME280;11543;43.144;24.684;2023-05-29T11:55:31;98623.25;;;25.51;67.93
22753;BME280;11543;43.144;24.684;2023-05-29T11:58:01;98625.84;;;25.62;66.81
22753;BME280;11543;43.144;24.684;2023-05-29T12:00:38;98624.03;;;25.68;66.07
22753;BME280;11543;43.144;24.684;2023-05-29T12:03:05;98611.94;;;25.69;65.46
22753;BME280;11543;43.144;24.684;2023-05-29T12:05:43;98637.00;;;25.99;66.91
22753;BME280;11543;43.144;24.684;2023-05-29T12:08:09;98622.03;;;26.12;65.91
22753;BME280;11543;43.144;24.684;2023-05-29T12:10:35;98632.44;;;26.37;65.01
22753;BME280;11543;43.144;24.684;2023-05-29T12:13:01;98632.06;;;26.60;63.78
22753;BME280;11543;43.144;24.684;2023-05-29T12:15:27;98611.00;;;26.81;63.04
22753;BME280;11543;43.144;24.684;2023-05-29T12:17:53;98611.38;;;26.90;62.95
22753;BME280;11543;43.144;24.684;2023-05-29T12:20:22;98605.59;;;26.91;63.97
22753;BME280;11543;43.144;24.684;2023-05-29T12:22:48;98618.09;;;27.09;60.61
22753;BME280;11543;43.144;24.684;2023-05-29T12:25:18;98616.78;;;27.22;58.68
22753;BME280;11543;43.144;24.684;2023-05-29T12:27:45;98621.44;;;27.11;58.39
22753;BME280;11543;43.144;24.684;2023-05-29T12:30:20;98624.97;;;26.70;60.36
22753;BME280;11543;43.144;24.684;2023-05-29T12:32:51;98617.47;;;26.60;58.72
22753;BME280;11543;43.144;24.684;2023-05-29T12:35:17;98615.72;;;26.44;60.07
22753;BME280;11543;43.144;24.684;2023-05-29T12:37:48;98609.41;;;26.16;61.01
22753;BME280;11543;43.144;24.684;2023-05-29T12:40:15;98620.06;;;26.08;60.12
22753;BME280;11543;43.144;24.684;2023-05-29T12:42:41;98605.97;;;25.77;61.11
22753;BME280;11543;43.144;24.684;2023-05-29T12:45:07;98616.66;;;25.52;64.71
22753;BME280;11543;43.144;24.684;2023-05-29T12:47:33;98597.59;;;25.18;72.79
22753;BME280;11543;43.144;24.684;2023-05-29T12:50:04;98593.38;;;24.94;75.13
22753;BME280;11543;43.144;24.684;2023-05-29T12:52:30;98581.53;;;24.71;75.89
22753;BME280;11543;43.144;24.684;2023-05-29T12:55:01;98606.00;;;24.56;75.34
22753;BME280;11543;43.144;24.684;2023-05-29T12:57:26;98615.09;;;24.40;75.05
22753;BME280;11543;43.144;24.684;2023-05-29T12:59:52;98594.06;;;24.29;74.14
22753;BME280;11543;43.144;24.684;2023-05-29T13:02:18;98604.41;;;24.10;74.21
22753;BME280;11543;43.144;24.684;2023-05-29T13:04:43;98593.94;;;23.62;76.74
22753;BME280;11543;43.144;24.684;2023-05-29T13:07:09;98590.25;;;23.16;80.15
22753;BME280;11543;43.144;24.684;2023-05-29T13:09:40;98603.41;;;22.91;81.90
22753;BME280;11543;43.144;24.684;2023-05-29T13:12:09;98585.91;;;22.68;82.13
22753;BME280;11543;43.144;24.684;2023-05-29T13:14:46;98580.47;;;22.56;82.47
22753;BME280;11543;43.144;24.684;2023-05-29T13:17:12;98580.81;;;22.60;82.27
22753;BME280;11543;43.144;24.684;2023-05-29T13:19:37;98577.97;;;22.55;82.02
22753;BME280;11543;43.144;24.684;2023-05-29T13:22:03;98587.09;;;22.61;81.59
22753;BME280;11543;43.144;24.684;2023-05-29T13:24:29;98586.75;;;22.57;81.67
22753;BME280;11543;43.144;24.684;2023-05-29T13:27:00;98581.03;;;22.47;82.14
22753;BME280;11543;43.144;24.684;2023-05-29T13:29:27;98595.28;;;22.49;82.21
22753;BME280;11543;43.144;24.684;2023-05-29T13:31:53;98591.97;;;22.47;82.73
22753;BME280;11543;43.144;24.684;2023-05-29T13:34:18;98619.69;;;22.62;83.14
22753;BME280;11543;43.144;24.684;2023-05-29T13:36:44;98607.56;;;22.58;83.37
22753;BME280;11543;43.144;24.684;2023-05-29T13:39:12;98616.94;;;22.62;83.35
22753;BME280;11543;43.144;24.684;2023-05-29T13:41:37;98630.97;;;22.77;83.34
22753;BME280;11543;43.144;24.684;2023-05-29T13:44:04;98633.38;;;22.85;84.26
22753;BME280;11543;43.144;24.684;2023-05-29T13:46:29;98640.75;;;22.97;84.27
22753;BME280;11543;43.144;24.684;2023-05-29T13:48:55;98641.09;;;23.00;84.24
22753;BME280;11543;43.144;24.684;2023-05-29T13:51:20;98669.75;;;23.09;83.66
22753;BME280;11543;43.144;24.684;2023-05-29T13:53:46;98667.63;;;23.00;82.97
22753;BME280;11543;43.144;24.684;2023-05-29T13:56:11;98694.97;;;23.00;82.55
22753;BME280;11543;43.144;24.684;2023-05-29T13:58:37;98704.22;;;22.75;81.23
22753;BME280;11543;43.144;24.684;2023-05-29T14:04:55;98718.84;;;22.16;77.97
22753;BME280;11543;43.144;24.684;2023-05-29T14:07:39;98715.16;;;21.92;78.03
22753;BME280;11543;43.144;24.684;2023-05-29T14:10:05;98724.97;;;21.81;78.06
22753;BME280;11543;43.144;24.684;2023-05-29T14:12:41;98721.94;;;21.53;78.29
22753;BME280;11543;43.144;24.684;2023-05-29T14:15:27;98692.50;;;21.18;78.51
22753;BME280;11543;43.144;24.684;2023-05-29T14:17:55;98721.97;;;21.10;78.98
22753;BME280;11543;43.144;24.684;2023-05-29T14:20:20;98710.44;;;20.89;79.56
22753;BME280;11543;43.144;24.684;2023-05-29T14:22:46;98707.19;;;20.74;79.67
22753;BME280;11543;43.144;24.684;2023-05-29T14:25:11;98695.34;;;20.62;80.37
22753;BME280;11543;43.144;24.684;2023-05-29T14:27:37;98694.19;;;20.51;80.82
22753;BME280;11543;43.144;24.684;2023-05-29T14:30:10;98668.44;;;20.47;81.13
22753;BME280;11543;43.144;24.684;2023-05-29T14:32:36;98691.44;;;20.51;81.25
22753;BME280;11543;43.144;24.684;2023-05-29T14:35:02;98674.09;;;20.46;81.24
22753;BME280;11543;43.144;24.684;2023-05-29T14:37:28;98666.81;;;20.40;81.52
22753;BME280;11543;43.144;24.684;2023-05-29T14:39:53;98673.97;;;20.34;82.01
22753;BME280;11543;43.144;24.684;2023-05-29T14:42:19;98653.53;;;20.18;81.91
22753;BME280;11543;43.144;24.684;2023-05-29T14:44:44;98662.38;;;20.14;82.28
22753;BME280;11543;43.144;24.684;2023-05-29T14:47:10;98647.16;;;20.06;82.55
22753;BME280;11543;43.144;24.684;2023-05-29T14:49:36;98641.53;;;20.01;82.70
22753;BME280;11543;43.144;24.684;2023-05-29T14:52:03;98644.25;;;20.01;82.85
22753;BME280;11543;43.144;24.684;2023-05-29T14:54:30;98636.97;;;19.95;83.20
22753;BME280;11543;43.144;24.684;2023-05-29T14:56:56;98626.94;;;19.89;83.26
22753;BME280;11543;43.144;24.684;2023-05-29T14:59:23;98641.56;;;19.94;83.08
22753;BME280;11543;43.144;24.684;2023-05-29T15:01:49;98645.31;;;20.00;83.11